Time;durP1;ratioP1;P1;durP2;ratioP2;P2;SDS_P1;SDS_P2;PMS_P1;PMS_P2;Temp;Humidity;BMP_temperature;BMP_pressure;BME280_temperature;BME280_humidity;BME280_pressure;Samples;Min_cycle;Max_cycle;Signal;HPM_P1;HPM_P2
2023/03/11 00:00:29;;;;;;;;;16.00;11.00;;;;;8.22;80.13;95844.84;4822442;29;101984;-70
2023/03/11 00:02:59;;;;;;;;;13.25;10.25;;;;;8.23;80.21;95847.31;4822596;29;102029;-73
2023/03/11 00:05:33;;;;;;;;;10.25;8.00;;;;;8.24;80.15;95851.59;4822097;29;103523;-73
2023/03/11 00:08:00;;;;;;;;;9.75;9.00;;;;;8.24;80.60;95853.50;4804164;29;104192;-73
2023/03/11 00:10:33;;;;;;;;;9.50;8.25;;;;;8.25;79.89;95849.72;4823145;29;102446;-73
2023/03/11 00:13:01;;;;;;;;;9.25;8.25;;;;;8.25;79.69;95845.16;4822184;29;102077;-71
2023/03/11 00:15:29;;;;;;;;;9.00;7.75;;;;;8.26;79.95;95843.28;4824575;29;103085;-71
2023/03/11 00:17:56;;;;;;;;;7.75;6.50;;;;;8.27;79.49;95847.59;4823105;29;104024;-70
2023/03/11 00:20:32;;;;;;;;;8.00;6.00;;;;;8.28;79.95;95839.28;4819598;29;102061;-71
2023/03/11 00:23:00;;;;;;;;;8.25;7.00;;;;;8.30;79.97;95837.16;4822469;29;102068;-71
2023/03/11 00:25:30;;;;;;;;;6.00;5.25;;;;;8.32;79.85;95835.06;4821574;29;102011;-72
2023/03/11 00:27:57;;;;;;;;;8.75;7.50;;;;;8.36;79.49;95843.44;4822130;29;104371;-72
2023/03/11 00:30:25;;;;;;;;;8.50;7.25;;;;;8.37;79.34;95842.38;4822395;29;102465;-72
2023/03/11 00:32:55;;;;;;;;;7.25;6.00;;;;;8.39;79.70;95840.22;4824733;29;101996;-72
2023/03/11 00:35:27;;;;;;;;;7.25;7.00;;;;;8.37;78.99;95828.91;4824140;29;102439;-72
2023/03/11 00:37:57;;;;;;;;;10.25;8.25;;;;;8.34;78.88;95826.69;4818030;29;108765;-72
2023/03/11 00:40:26;;;;;;;;;7.00;6.00;;;;;8.35;79.08;95833.72;4822658;29;102252;-72
2023/03/11 00:42:53;;;;;;;;;6.00;5.50;;;;;8.28;79.52;95828.53;4818577;29;102211;-71
2023/03/11 00:45:21;;;;;;;;;3.00;3.00;;;;;8.26;79.12;95827.94;4825876;29;101915;-72
2023/03/11 00:47:49;;;;;;;;;4.25;4.00;;;;;8.23;79.13;95824.97;4819304;29;108911;-72
2023/03/11 00:50:20;;;;;;;;;8.25;5.25;;;;;8.18;78.87;95819.53;4816205;29;102143;-72
2023/03/11 00:52:48;;;;;;;;;7.25;4.75;;;;;8.01;79.02;95803.47;4817449;29;101970;-72
2023/03/11 00:55:19;;;;;;;;;4.00;4.00;;;;;8.12;78.98;95823.22;4819165;29;102175;-72
2023/03/11 00:57:46;;;;;;;;;7.00;7.00;;;;;8.07;79.08;95824.78;4835966;29;104043;-72
2023/03/11 01:00:16;;;;;;;;;8.00;8.00;;;;;8.03;79.28;95831.75;4841988;29;102210;-72
2023/03/11 01:02:43;;;;;;;;;11.50;8.00;;;;;8.01;79.33;95827.69;4839912;29;102093;-72
2023/03/11 01:05:11;;;;;;;;;8.75;7.00;;;;;7.92;79.38;95819.25;4839960;29;102887;-72
2023/03/11 01:07:38;;;;;;;;;6.75;6.75;;;;;7.99;79.42;95824.44;4839186;29;105751;-72
2023/03/11 01:10:06;;;;;;;;;10.50;10.00;;;;;7.96;79.20;95811.50;4838822;28;102386;-72
2023/03/11 01:12:33;;;;;;;;;12.25;9.25;;;;;8.00;78.66;95820.69;4840301;29;101824;-72
2023/03/11 01:15:02;;;;;;;;;10.25;9.00;;;;;8.00;78.13;95809.91;4840434;29;102037;-72
2023/03/11 01:17:29;;;;;;;;;10.25;9.00;;;;;7.92;77.86;95803.13;4837117;29;104041;-71
2023/03/11 01:19:56;;;;;;;;;9.00;5.50;;;;;8.00;77.30;95824.19;4841432;28;102328;-72
2023/03/11 01:22:23;;;;;;;;;7.75;7.00;;;;;7.75;76.56;95791.59;4841295;29;101958;-71
2023/03/11 01:24:50;;;;;;;;;4.00;3.50;;;;;8.05;75.75;95824.25;4841016;29;101972;-72
2023/03/11 01:27:17;;;;;;;;;4.00;3.75;;;;;8.06;75.37;95831.22;4837468;29;104035;-72
2023/03/11 01:29:44;;;;;;;;;5.00;3.00;;;;;8.07;73.85;95827.47;4821602;29;102123;-71
2023/03/11 01:32:11;;;;;;;;;3.25;2.25;;;;;8.03;73.04;95814.78;4838111;29;102485;-72
2023/03/11 01:34:38;;;;;;;;;3.75;2.50;;;;;7.72;73.07;95772.47;4841310;29;102339;-72
2023/03/11 01:37:05;;;;;;;;;2.50;1.50;;;;;8.10;72.93;95828.06;4840750;29;104015;-72
2023/03/11 01:39:32;;;;;;;;;4.00;1.00;;;;;7.84;71.82;95782.03;4842211;29;101892;-72
2023/03/11 01:41:59;;;;;;;;;1.75;1.00;;;;;8.17;71.57;95836.72;4842716;29;103093;-72
2023/03/11 01:44:26;;;;;;;;;1.50;1.50;;;;;8.12;71.69;95817.84;4845269;29;102530;-71
2023/03/11 01:46:52;;;;;;;;;0.75;0.00;;;;;8.12;70.95;95828.59;4845481;28;104043;-72
2023/03/11 01:49:20;;;;;;;;;1.50;1.00;;;;;8.03;71.30;95829.06;4844344;29;102208;-72
2023/03/11 01:51:52;;;;;;;;;1.00;1.00;;;;;8.05;71.09;95821.56;4841603;29;102779;-71
2023/03/11 01:54:34;;;;;;;;;2.00;1.00;;;;;8.06;70.75;95820.47;4843861;28;102032;-71
2023/03/11 01:57:06;;;;;;;;;1.25;1.00;;;;;8.02;70.68;95808.59;4839743;29;108627;-71
2023/03/11 01:59:38;;;;;;;;;1.75;1.00;;;;;8.03;70.95;95812.91;4842585;29;102392;-71
2023/03/11 02:02:13;;;;;;;;;1.25;0.75;;;;;8.02;70.89;95821.22;4835486;29;101937;-72
2023/03/11 02:04:41;;;;;;;;;1.00;1.00;;;;;8.01;70.89;95819.63;4839151;29;102323;-72
2023/03/11 02:07:21;;;;;;;;;2.00;1.75;;;;;7.96;72.11;95816.88;4839252;29;104109;-71
2023/03/11 02:10:02;;;;;;;;;1.00;0.50;;;;;7.85;72.84;95810.56;4838683;29;102089;-72
2023/03/11 02:12:55;;;;;;;;;3.00;2.25;;;;;7.82;75.23;95832.59;4842007;29;102042;-71
2023/03/11 02:15:37;;;;;;;;;1.00;1.00;;;;;7.76;75.10;95830.91;4839261;29;102001;-72
2023/03/11 02:18:21;;;;;;;;;3.00;2.50;;;;;7.73;75.79;95822.53;4841507;28;103182;-72
2023/03/11 02:21:15;;;;;;;;;3.00;3.00;;;;;7.65;75.78;95823.78;4838767;29;103054;-72
2023/03/11 02:24:28;;;;;;;;;1.00;1.00;;;;;7.61;76.39;95825.31;4839958;29;102096;-72
2023/03/11 02:27:07;;;;;;;;;1.00;1.00;;;;;7.54;75.89;95827.41;4841530;29;102217;-72
2023/03/11 02:29:34;;;;;;;;;1.75;1.00;;;;;7.50;76.81;95839.72;4841657;29;104068;-72
2023/03/11 02:32:05;;;;;;;;;1.25;1.25;;;;;7.47;76.51;95837.53;4841950;29;102318;-72
2023/03/11 02:34:35;;;;;;;;;1.75;1.25;;;;;7.47;75.68;95830.28;4842648;29;101987;-72
2023/03/11 02:37:09;;;;;;;;;3.50;2.00;;;;;7.45;75.43;95821.66;4843961;29;101886;-72
2023/03/11 02:39:42;;;;;;;;;2.25;2.00;;;;;7.44;74.88;95821.88;4841334;29;104066;-72
2023/03/11 02:42:22;;;;;;;;;1.75;1.00;;;;;7.41;74.30;95825.91;4842331;29;102175;-72
2023/03/11 02:45:09;;;;;;;;;1.50;1.00;;;;;7.41;74.10;95833.97;4843509;29;102003;-72
2023/03/11 02:47:39;;;;;;;;;4.00;2.00;;;;;7.42;73.84;95840.16;4842638;29;102922;-73
2023/03/11 02:50:10;;;;;;;;;1.25;1.00;;;;;7.30;73.20;95829.50;4842247;29;104096;-73
2023/03/11 02:52:37;;;;;;;;;0.50;0.50;;;;;7.42;74.25;95840.97;4838796;29;102056;-73
2023/03/11 02:55:05;;;;;;;;;2.00;2.00;;;;;7.34;73.76;95859.41;4842255;28;102256;-72
2023/03/11 02:57:32;;;;;;;;;0.25;0.00;;;;;7.33;73.17;95857.78;4841019;28;102460;-72
2023/03/11 03:00:05;;;;;;;;;1.00;1.00;;;;;7.33;73.22;95863.16;4840905;29;106481;-72
2023/03/11 03:02:32;;;;;;;;;1.75;1.75;;;;;7.27;73.37;95859.56;4842182;29;101892;-72
2023/03/11 03:04:59;;;;;;;;;1.00;1.00;;;;;7.27;72.55;95845.31;4841068;29;101912;-72
2023/03/11 03:07:26;;;;;;;;;2.00;2.00;;;;;7.24;73.05;95854.69;4842618;29;101984;-71
2023/03/11 03:09:52;;;;;;;;;1.00;1.00;;;;;7.17;71.98;95849.47;4843481;29;104035;-72
2023/03/11 03:12:19;;;;;;;;;0.00;0.00;;;;;7.21;71.65;95846.28;4840711;29;102381;-72
2023/03/11 03:14:46;;;;;;;;;1.00;1.00;;;;;7.24;71.92;95853.88;4841970;29;102013;-73
2023/03/11 03:17:13;;;;;;;;;1.50;1.50;;;;;7.16;72.68;95845.16;4840395;29;102240;-71
2023/03/11 03:19:40;;;;;;;;;2.50;2.00;;;;;7.14;73.06;95855.34;4842981;28;104461;-73
2023/03/11 03:22:07;;;;;;;;;1.25;1.25;;;;;7.01;73.68;95838.75;4840207;29;102368;-72
2023/03/11 03:24:34;;;;;;;;;1.50;1.00;;;;;7.10;74.07;95854.22;4842292;29;102354;-72
2023/03/11 03:27:01;;;;;;;;;0.50;0.50;;;;;7.05;73.72;95846.09;4842121;29;101964;-72
2023/03/11 03:29:29;;;;;;;;;1.00;1.00;;;;;7.01;74.50;95847.63;4836945;28;103996;-72
2023/03/11 03:31:56;;;;;;;;;1.25;1.25;;;;;6.96;75.13;95847.56;4842162;29;102204;-72
2023/03/11 03:34:23;;;;;;;;;0.75;0.75;;;;;6.93;75.17;95848.06;4843529;29;102385;-73
2023/03/11 03:36:50;;;;;;;;;2.00;1.00;;;;;6.86;75.56;95849.25;4843713;29;102181;-72
2023/03/11 03:39:18;;;;;;;;;1.50;1.25;;;;;6.75;76.97;95856.38;4841660;29;103597;-72
2023/03/11 03:41:45;;;;;;;;;1.00;1.00;;;;;6.67;76.50;95862.13;4841508;29;102333;-72
2023/03/11 03:44:12;;;;;;;;;3.00;3.00;;;;;6.47;77.71;95861.78;4842029;29;102434;-72
2023/03/11 03:46:39;;;;;;;;;1.25;1.25;;;;;6.40;76.83;95858.44;4842395;29;102308;-72
2023/03/11 03:49:06;;;;;;;;;2.00;1.50;;;;;6.41;77.22;95860.88;4839923;29;104047;-71
2023/03/11 03:51:33;;;;;;;;;1.00;1.00;;;;;6.39;78.44;95865.69;4841210;29;102765;-71
2023/03/11 03:54:00;;;;;;;;;1.25;1.00;;;;;6.32;79.69;95866.88;4840697;29;105823;-71
2023/03/11 03:56:27;;;;;;;;;1.25;1.25;;;;;6.24;80.18;95866.22;4840248;29;102258;-71
2023/03/11 03:58:54;;;;;;;;;1.00;1.00;;;;;6.06;81.01;95865.59;4842186;29;104051;-71
2023/03/11 04:01:24;;;;;;;;;2.00;1.75;;;;;6.01;81.91;95866.31;4841133;29;102001;-70
2023/03/11 04:03:51;;;;;;;;;2.25;2.25;;;;;5.99;82.23;95857.69;4841716;29;102470;-71
2023/03/11 04:06:23;;;;;;;;;3.00;2.00;;;;;5.83;83.13;95864.59;4842332;29;102005;-72
2023/03/11 04:08:52;;;;;;;;;2.00;1.00;;;;;5.83;84.50;95863.78;4839378;29;108941;-72
2023/03/11 04:11:19;;;;;;;;;2.00;2.00;;;;;5.68;85.61;95861.59;4841695;29;102137;-72
2023/03/11 04:13:46;;;;;;;;;3.00;2.50;;;;;5.55;86.82;95861.88;4837711;29;102069;-72
2023/03/11 04:16:19;;;;;;;;;2.00;2.00;;;;;5.35;87.00;95861.47;4828426;29;102063;-71
2023/03/11 04:18:47;;;;;;;;;3.00;3.00;;;;;5.21;88.15;95865.44;4836870;29;104149;-72
2023/03/11 04:21:14;;;;;;;;;4.00;3.00;;;;;5.21;89.29;95876.97;4839842;29;102976;-72
2023/03/11 04:23:41;;;;;;;;;2.00;2.00;;;;;5.19;89.54;95865.66;4841390;29;102177;-71
2023/03/11 04:26:09;;;;;;;;;3.00;2.50;;;;;5.01;90.76;95876.50;4842080;29;102329;-72
2023/03/11 04:28:36;;;;;;;;;2.00;2.00;;;;;5.01;90.40;95876.50;4836703;28;104061;-71
2023/03/11 04:31:03;;;;;;;;;4.00;3.00;;;;;4.81;90.95;95876.03;4841174;29;101900;-71
2023/03/11 04:33:30;;;;;;;;;3.00;3.00;;;;;4.75;90.41;95863.56;4840983;29;102193;-71
2023/03/11 04:35:58;;;;;;;;;1.00;1.00;;;;;4.80;91.11;95875.22;4841965;28;102360;-71
2023/03/11 04:38:24;;;;;;;;;1.00;1.00;;;;;4.71;91.11;95867.75;4840592;29;104309;-71
2023/03/11 04:40:51;;;;;;;;;1.00;1.00;;;;;4.64;91.24;95872.41;4842483;29;101836;-71
2023/03/11 04:43:18;;;;;;;;;2.00;2.00;;;;;4.62;91.66;95877.16;4840112;29;102164;-71
2023/03/11 04:45:49;;;;;;;;;2.75;2.00;;;;;4.45;92.37;95866.31;4838662;28;101926;-72
2023/03/11 04:48:16;;;;;;;;;2.00;2.00;;;;;4.40;93.65;95868.88;4835137;29;104016;-72
2023/03/11 04:50:43;;;;;;;;;2.00;2.00;;;;;4.40;94.69;95861.66;4839504;29;101957;-72
2023/03/11 04:53:10;;;;;;;;;3.25;2.25;;;;;4.33;96.08;95866.28;4841274;29;101781;-72
2023/03/11 04:55:37;;;;;;;;;3.00;3.00;;;;;4.31;95.14;95865.72;4841155;29;102023;-72
2023/03/11 04:58:04;;;;;;;;;3.00;3.00;;;;;4.33;96.15;95870.81;4840115;29;104014;-72
2023/03/11 05:00:31;;;;;;;;;2.00;2.00;;;;;4.25;96.12;95863.13;4841173;29;103123;-72
2023/03/11 05:02:58;;;;;;;;;1.50;1.25;;;;;4.18;95.62;95873.94;4840010;29;102159;-72
2023/03/11 05:05:25;;;;;;;;;3.00;3.00;;;;;4.15;96.62;95868.19;4840191;29;102000;-72
2023/03/11 05:07:52;;;;;;;;;5.25;3.50;;;;;3.95;96.53;95876.50;4840906;29;108741;-72
2023/03/11 05:10:21;;;;;;;;;1.25;1.25;;;;;4.07;96.64;95873.88;4836156;29;102319;-72
2023/03/11 05:12:49;;;;;;;;;2.00;2.00;;;;;3.88;96.52;95873.09;4838902;29;102737;-72
2023/03/11 05:15:17;;;;;;;;;2.75;2.75;;;;;3.82;97.15;95884.72;4841080;28;102807;-72
2023/03/11 05:17:44;;;;;;;;;3.50;2.00;;;;;3.66;95.39;95877.28;4839855;29;103979;-71
2023/03/11 05:20:11;;;;;;;;;2.00;2.00;;;;;3.61;96.34;95880.63;4837892;29;102586;-72
2023/03/11 05:22:41;;;;;;;;;3.00;2.00;;;;;3.58;96.79;95881.91;4837600;29;102230;-72
2023/03/11 05:25:08;;;;;;;;;2.00;1.75;;;;;3.53;95.48;95881.75;4841053;29;102034;-71
2023/03/11 05:27:35;;;;;;;;;5.25;2.00;;;;;3.42;95.83;95892.38;4821100;29;104193;-72
2023/03/11 05:30:03;;;;;;;;;2.00;1.00;;;;;3.44;96.85;95904.47;4840585;29;102197;-72
2023/03/11 05:32:30;;;;;;;;;1.50;1.50;;;;;3.42;95.06;95903.06;4839841;29;102115;-72
2023/03/11 05:34:57;;;;;;;;;1.25;1.00;;;;;3.50;95.40;95906.25;4844308;28;102416;-71
2023/03/11 05:37:24;;;;;;;;;5.00;3.00;;;;;3.31;94.89;95898.44;4840844;29;103995;-72
2023/03/11 05:39:52;;;;;;;;;6.50;2.50;;;;;3.22;95.31;95889.09;4840961;29;102228;-73
2023/03/11 05:42:18;;;;;;;;;2.75;2.00;;;;;3.39;94.67;95917.66;4837172;29;102307;-72
2023/03/11 05:44:47;;;;;;;;;4.75;3.00;;;;;3.22;95.49;95921.13;4841602;29;104202;-72
2023/03/11 05:47:15;;;;;;;;;6.00;5.00;;;;;3.20;96.63;95931.25;4839052;29;103348;-72
2023/03/11 05:49:43;;;;;;;;;4.50;4.50;;;;;3.09;97.75;95922.91;4838835;29;102202;-72
2023/03/11 05:52:10;;;;;;;;;1.50;1.00;;;;;2.82;96.84;95944.69;4838537;29;101941;-72
2023/03/11 05:54:37;;;;;;;;;0.50;0.50;;;;;2.62;96.36;95958.19;4845310;28;106027;-72
2023/03/11 05:57:03;;;;;;;;;1.75;0.75;;;;;2.35;98.55;95954.06;4836628;29;104056;-71
2023/03/11 05:59:34;;;;;;;;;1.00;1.00;;;;;2.15;99.06;95964.84;4837403;28;102337;-71
2023/03/11 06:02:01;;;;;;;;;1.25;1.25;;;;;1.86;99.25;95970.69;4837419;29;102269;-72
2023/03/11 06:04:28;;;;;;;;;1.50;1.50;;;;;1.87;100.00;95972.34;4839429;29;102165;-71
2023/03/11 06:06:55;;;;;;;;;2.00;1.00;;;;;1.71;100.00;95979.78;4839984;29;103929;-71
2023/03/11 06:09:22;;;;;;;;;1.00;1.00;;;;;1.67;100.00;95983.88;4838123;29;102533;-72
2023/03/11 06:11:49;;;;;;;;;1.75;1.75;;;;;1.57;100.00;95986.19;4836820;28;103015;-72
2023/03/11 06:14:16;;;;;;;;;1.25;1.25;;;;;1.52;100.00;95996.66;4834841;29;102360;-72
2023/03/11 06:16:43;;;;;;;;;1.00;1.00;;;;;1.56;100.00;96007.69;4837078;29;103984;-72
2023/03/11 06:19:10;;;;;;;;;2.00;2.00;;;;;1.51;100.00;96003.00;4836059;29;102110;-72
2023/03/11 06:21:37;;;;;;;;;5.00;2.75;;;;;1.41;100.00;96010.56;4838633;29;102337;-72
2023/03/11 06:24:04;;;;;;;;;2.50;2.50;;;;;1.29;100.00;96023.72;4841585;29;103015;-71
2023/03/11 06:26:31;;;;;;;;;4.00;4.00;;;;;1.15;100.00;96015.94;4838927;29;104308;-71
2023/03/11 06:28:58;;;;;;;;;6.50;5.75;;;;;1.18;100.00;96026.16;4842512;29;104402;-71
2023/03/11 06:31:27;;;;;;;;;5.25;5.00;;;;;1.23;100.00;96050.31;4845050;29;102333;-71
2023/03/11 06:33:58;;;;;;;;;5.00;5.00;;;;;1.13;100.00;96045.41;4844976;29;102346;-71
2023/03/11 06:36:25;;;;;;;;;4.75;4.75;;;;;1.14;100.00;96052.38;4843742;28;108683;-71
2023/03/11 06:38:53;;;;;;;;;4.25;3.75;;;;;0.97;100.00;96034.34;4840125;29;102216;-71
2023/03/11 06:41:20;;;;;;;;;5.00;4.75;;;;;0.95;100.00;96055.00;4843727;29;101826;-71
2023/03/11 06:43:47;;;;;;;;;11.00;8.00;;;;;0.73;100.00;96060.50;4843035;29;102059;-71
2023/03/11 06:46:18;;;;;;;;;9.75;7.75;;;;;0.73;100.00;96057.84;4843080;29;104055;-71
2023/03/11 06:48:45;;;;;;;;;10.00;8.00;;;;;0.83;100.00;96066.25;4840805;29;101859;-72
2023/03/11 06:51:12;;;;;;;;;7.00;4.50;;;;;0.81;100.00;96062.97;4839977;29;102144;-72
2023/03/11 06:53:40;;;;;;;;;5.75;5.00;;;;;0.65;100.00;96079.31;4842266;29;102455;-72
2023/03/11 06:56:09;;;;;;;;;6.00;5.00;;;;;0.54;100.00;96049.84;4842524;28;104092;-72
2023/03/11 06:58:38;;;;;;;;;4.00;4.00;;;;;0.37;100.00;96028.13;4835610;28;102574;-71
2023/03/11 07:01:09;;;;;;;;;6.00;6.00;;;;;0.55;100.00;96076.22;4843113;29;101952;-71
2023/03/11 07:03:36;;;;;;;;;8.00;6.00;;;;;0.63;100.00;96085.88;4841792;29;102156;-72
2023/03/11 07:06:04;;;;;;;;;9.00;9.00;;;;;0.60;100.00;96088.91;4841953;29;103984;-72
2023/03/11 07:08:32;;;;;;;;;7.25;5.25;;;;;0.63;100.00;96089.31;4841679;29;102056;-71
2023/03/11 07:11:20;;;;;;;;;8.00;8.00;;;;;0.73;100.00;96103.06;4843232;29;101932;-71
2023/03/11 07:13:47;;;;;;;;;6.00;6.00;;;;;0.89;100.00;96094.72;4840370;29;102204;-71
2023/03/11 07:16:20;;;;;;;;;5.00;5.00;;;;;1.07;100.00;96114.59;4841088;29;104081;-71
2023/03/11 07:18:49;;;;;;;;;9.33;8.67;;;;;1.08;100.00;96116.25;4838771;29;101949;-71
2023/03/11 07:21:18;;;;;;;;;6.25;5.25;;;;;1.15;100.00;96127.69;4841056;29;102343;-72
2023/03/11 07:23:48;;;;;;;;;9.00;8.00;;;;;1.05;100.00;96119.28;4844438;29;102180;-71
2023/03/11 07:26:16;;;;;;;;;6.75;6.00;;;;;1.20;100.00;96119.94;4838178;29;104002;-72
2023/03/11 07:28:44;;;;;;;;;8.25;6.75;;;;;0.96;100.00;96121.31;4841660;29;102254;-71
2023/03/11 07:31:15;;;;;;;;;6.00;5.00;;;;;1.05;100.00;96132.59;4838633;28;101922;-72
2023/03/11 07:33:43;;;;;;;;;5.00;5.00;;;;;1.08;100.00;96134.88;4841229;29;102347;-72
2023/03/11 07:36:13;;;;;;;;;7.50;7.50;;;;;0.96;100.00;96123.16;4843474;28;104039;-71
2023/03/11 07:38:40;;;;;;;;;6.50;5.00;;;;;1.17;100.00;96144.28;4841967;29;103040;-71
2023/03/11 07:41:12;;;;;;;;;9.00;8.33;;;;;1.22;100.00;96131.16;4841616;29;102222;-71
2023/03/11 07:43:41;;;;;;;;;7.25;5.25;;;;;1.03;100.00;96140.78;4843136;29;101968;-72
2023/03/11 07:46:11;;;;;;;;;5.00;5.00;;;;;1.31;100.00;96141.44;4840687;29;103982;-71
2023/03/11 07:48:39;;;;;;;;;5.25;5.00;;;;;1.43;100.00;96140.84;4839347;29;102069;-71
2023/03/11 07:51:12;;;;;;;;;8.00;6.50;;;;;1.45;100.00;96144.91;4842810;29;102113;-72
2023/03/11 07:53:39;;;;;;;;;9.00;8.25;;;;;1.45;100.00;96152.91;4841792;29;102294;-71
2023/03/11 07:56:08;;;;;;;;;11.00;9.00;;;;;1.43;100.00;96149.63;4840542;29;104036;-72
2023/03/11 07:58:36;;;;;;;;;7.25;7.25;;;;;1.42;100.00;96147.16;4840951;28;102676;-72
2023/03/11 08:01:05;;;;;;;;;9.25;8.50;;;;;1.09;100.00;96144.47;4840205;29;102175;-71
2023/03/11 08:03:34;;;;;;;;;5.75;5.75;;;;;1.27;100.00;96147.34;4842454;28;102188;-72
2023/03/11 08:06:01;;;;;;;;;10.00;8.75;;;;;1.11;100.00;96153.06;4841868;29;103981;-71
2023/03/11 08:08:28;;;;;;;;;11.00;11.00;;;;;1.12;100.00;96154.72;4841899;29;103288;-71
2023/03/11 08:10:55;;;;;;;;;13.50;12.75;;;;;0.85;100.00;96154.66;4839398;29;102321;-72
2023/03/11 08:13:22;;;;;;;;;9.75;8.50;;;;;1.06;100.00;96166.16;4841254;29;102371;-72
2023/03/11 08:15:49;;;;;;;;;11.00;10.00;;;;;1.00;100.00;96172.28;4839945;29;104020;-71
2023/03/11 08:18:16;;;;;;;;;9.25;9.00;;;;;0.96;100.00;96173.69;4837728;29;101971;-72
2023/03/11 08:20:44;;;;;;;;;11.00;8.25;;;;;1.09;100.00;96176.41;4841057;29;101935;-72
2023/03/11 08:23:12;;;;;;;;;10.25;7.75;;;;;1.03;100.00;96171.91;4841103;29;102384;-71
2023/03/11 08:25:40;;;;;;;;;7.75;7.75;;;;;1.19;100.00;96177.66;4840953;29;104032;-72
2023/03/11 08:28:08;;;;;;;;;10.50;9.25;;;;;1.24;100.00;96188.53;4839181;29;102254;-71
2023/03/11 08:30:35;;;;;;;;;8.50;8.50;;;;;1.17;100.00;96192.19;4841107;29;102366;-72
2023/03/11 08:33:02;;;;;;;;;11.25;10.75;;;;;1.15;100.00;96186.25;4842182;29;102082;-71
2023/03/11 08:35:30;;;;;;;;;7.50;7.00;;;;;1.32;100.00;96195.50;4844624;28;104162;-71
2023/03/11 08:37:57;;;;;;;;;9.75;7.25;;;;;1.36;100.00;96186.06;4841024;29;102163;-72
2023/03/11 08:40:24;;;;;;;;;17.67;14.67;;;;;1.18;100.00;96191.16;4840395;29;102272;-71
2023/03/11 08:42:51;;;;;;;;;14.00;13.00;;;;;1.10;100.00;96196.66;4842493;29;102078;-71
2023/03/11 08:45:18;;;;;;;;;12.50;10.75;;;;;1.07;100.00;96186.44;4836518;29;104146;-72
2023/03/11 08:47:45;;;;;;;;;13.75;10.50;;;;;1.02;100.00;96195.03;4837192;29;102104;-72
2023/03/11 08:50:17;;;;;;;;;8.50;7.25;;;;;1.05;100.00;96196.44;4836217;28;101947;-72
2023/03/11 08:52:44;;;;;;;;;13.00;10.00;;;;;0.80;100.00;96193.53;4831777;29;102047;-72
2023/03/11 08:55:16;;;;;;;;;7.50;7.50;;;;;0.84;100.00;96210.72;4836150;29;104013;-71
2023/03/11 08:57:43;;;;;;;;;16.00;10.67;;;;;0.97;100.00;96209.94;4836191;29;102173;-72
2023/03/11 09:00:11;;;;;;;;;13.50;12.50;;;;;0.95;100.00;96202.16;4834957;28;102036;-72
2023/03/11 09:02:40;;;;;;;;;13.00;10.00;;;;;0.95;100.00;96210.13;4837593;29;101907;-72
2023/03/11 09:05:08;;;;;;;;;7.25;5.50;;;;;0.84;100.00;96211.53;4840346;29;104039;-72
2023/03/11 09:07:35;;;;;;;;;13.75;11.00;;;;;0.98;100.00;96240.84;4838298;29;102066;-72
2023/03/11 09:10:03;;;;;;;;;14.00;13.00;;;;;0.99;100.00;96231.84;4838769;29;101792;-72
2023/03/11 09:12:30;;;;;;;;;12.50;12.00;;;;;1.08;100.00;96243.97;4842412;29;101908;-72
2023/03/11 09:14:57;;;;;;;;;11.75;10.25;;;;;0.80;99.96;96246.72;4840492;29;108803;-72
2023/03/11 09:17:23;;;;;;;;;14.00;11.33;;;;;0.74;100.00;96261.59;4837984;29;102890;-72
2023/03/11 09:19:50;;;;;;;;;16.67;13.33;;;;;0.70;100.00;96259.53;4841238;29;102138;-71
2023/03/11 09:22:17;;;;;;;;;15.00;11.67;;;;;0.82;100.00;96272.06;4839667;29;102289;-72
2023/03/11 09:24:44;;;;;;;;;11.25;9.00;;;;;0.77;100.00;96269.19;4837677;29;105201;-71
2023/03/11 09:27:12;;;;;;;;;8.75;8.50;;;;;-143.91;100.00;62633.25;4876575;29;101970;-72
2023/03/11 09:29:39;;;;;;;;;12.75;10.50;;;;;-143.91;100.00;62633.25;4907871;28;13123;-72
2023/03/11 09:32:06;;;;;;;;;17.00;12.00;;;;;-143.91;100.00;62633.25;4912390;29;12270;-72
2023/03/11 09:34:33;;;;;;;;;13.00;10.00;;;;;-143.91;100.00;62633.25;4914826;28;12849;-72
2023/03/11 09:37:00;;;;;;;;;9.67;8.00;;;;;-143.91;100.00;62633.25;4916396;28;13857;-71
2023/03/11 09:39:27;;;;;;;;;15.00;10.00;;;;;-143.91;100.00;62633.25;4911485;29;12814;-73
2023/03/11 09:42:00;;;;;;;;;12.00;11.67;;;;;-143.91;100.00;62633.25;4915116;29;13133;-72
2023/03/11 09:44:57;;;;;;;;;12.67;9.67;;;;;-143.91;100.00;62633.25;4915957;29;17327;-72
2023/03/11 09:47:43;;;;;;;;;10.00;8.67;;;;;-143.91;100.00;62633.25;4897192;29;16099;-72
2023/03/11 09:50:28;;;;;;;;;14.33;11.67;;;;;-143.91;100.00;62633.25;4912668;28;15480;-73
2023/03/11 09:53:01;;;;;;;;;17.00;12.67;;;;;-143.91;100.00;62633.25;4912008;29;12856;-73
2023/03/11 09:55:48;;;;;;;;;11.67;10.33;;;;;-143.91;100.00;62633.25;4915096;28;17655;-72
2023/03/11 09:58:18;;;;;;;;;9.00;8.00;;;;;-143.91;100.00;62633.25;4911049;28;15731;-73
2023/03/11 10:00:46;;;;;;;;;12.67;12.00;;;;;-143.91;100.00;62633.25;4898507;28;12141;-72
2023/03/11 10:03:28;;;;;;;;;15.00;11.67;;;;;-143.91;100.00;62633.25;4898949;29;12850;-72
2023/03/11 10:06:04;;;;;;;;;11.00;9.00;;;;;-143.91;100.00;62633.25;4898094;29;14528;-73
2023/03/11 10:09:01;;;;;;;;;13.00;13.00;;;;;-143.91;100.00;62633.25;4899192;28;17425;-72
2023/03/11 10:11:54;;;;;;;;;10.00;9.00;;;;;-143.91;100.00;62633.25;4857314;29;15647;-72
2023/03/11 10:14:43;;;;;;;;;20.00;15.67;;;;;-143.91;100.00;62633.25;4896022;29;13472;-72
2023/03/11 10:17:47;;;;;;;;;18.67;14.33;;;;;-143.91;100.00;62633.25;4896856;28;17250;-72
2023/03/11 10:20:28;;;;;;;;;18.33;16.67;;;;;-143.91;100.00;62633.25;4897398;28;15972;-72
2023/03/11 10:23:16;;;;;;;;;22.00;15.00;;;;;-143.91;100.00;62633.25;4893630;29;13120;-72
2023/03/11 10:25:58;;;;;;;;;22.00;16.00;;;;;-143.91;100.00;62633.25;4897534;28;13458;-73
2023/03/11 10:28:53;;;;;;;;;19.00;15.00;;;;;-143.91;100.00;62633.25;4897069;28;12844;-72
2023/03/11 10:31:29;;;;;;;;;19.67;16.00;;;;;-143.91;100.00;62633.25;4896740;29;17474;-72
2023/03/11 10:34:20;;;;;;;;;14.33;12.67;;;;;-143.91;100.00;62633.25;4895002;28;12633;-72
2023/03/11 10:37:10;;;;;;;;;17.67;15.00;;;;;-143.91;100.00;62633.25;4891695;29;13146;-71
2023/03/11 10:39:39;;;;;;;;;19.33;13.00;;;;;-143.91;100.00;62633.25;4895837;28;17262;-71
2023/03/11 10:42:14;;;;;;;;;16.00;13.00;;;;;-143.91;100.00;62633.25;4896900;28;12191;-71
2023/03/11 10:44:42;;;;;;;;;19.00;17.33;;;;;-143.91;100.00;62633.25;4897238;28;12826;-72
2023/03/11 10:47:19;;;;;;;;;18.67;16.67;;;;;-143.91;100.00;62633.25;4898399;28;12803;-72
2023/03/11 10:49:46;;;;;;;;;22.67;19.00;;;;;-143.91;100.00;62633.25;4895575;28;13001;-72
2023/03/11 10:52:13;;;;;;;;;19.00;17.67;;;;;-143.91;100.00;62633.25;4899295;29;12322;-71
2023/03/11 10:54:58;;;;;;;;;17.33;15.00;;;;;-143.91;100.00;62633.25;4897464;29;12942;-72
2023/03/11 10:57:31;;;;;;;;;17.67;16.33;;;;;-143.91;100.00;62633.25;4906620;29;12592;-71
2023/03/11 11:00:00;;;;;;;;;22.67;19.33;;;;;-143.91;100.00;62633.25;4916224;29;17372;-71
2023/03/11 11:02:31;;;;;;;;;22.00;18.00;;;;;-143.91;100.00;62633.25;4915204;29;16033;-72
2023/03/11 11:05:04;;;;;;;;;15.67;14.67;;;;;-143.91;100.00;62633.25;4916998;29;16023;-71
2023/03/11 11:07:33;;;;;;;;;21.33;15.33;;;;;-143.91;100.00;62633.25;4912918;29;13520;-71
2023/03/11 11:10:14;;;;;;;;;15.00;13.67;;;;;-143.91;100.00;62633.25;4901055;29;12691;-72
2023/03/11 11:13:01;;;;;;;;;18.00;16.67;;;;;-143.91;100.00;62633.25;4916258;29;16243;-71
2023/03/11 11:15:55;;;;;;;;;17.33;15.33;;;;;-143.91;100.00;62633.25;4916133;29;16009;-71
2023/03/11 11:18:33;;;;;;;;;17.67;15.00;;;;;-143.91;100.00;62633.25;4912550;29;13474;-71
2023/03/11 11:21:12;;;;;;;;;8.33;8.00;;;;;-143.91;100.00;62633.25;4917120;29;17237;-73
2023/03/11 11:23:42;;;;;;;;;19.00;18.00;;;;;-143.91;100.00;62633.25;4914802;29;15828;-71
2023/03/11 11:26:22;;;;;;;;;20.00;18.00;;;;;-143.91;100.00;62633.25;4916962;29;13103;-72
2023/03/11 11:29:08;;;;;;;;;19.00;15.33;;;;;-143.91;100.00;62633.25;4915022;29;12148;-72
2023/03/11 11:31:43;;;;;;;;;18.33;16.33;;;;;-143.91;100.00;62633.25;4909957;29;17179;-72
2023/03/11 11:34:27;;;;;;;;;17.33;15.00;;;;;-143.91;100.00;62633.25;4912844;29;12851;-72
2023/03/11 11:36:58;;;;;;;;;19.00;12.33;;;;;-143.91;100.00;62633.25;4911756;29;12123;-72